createdAt,value
2023-02-06T00:00:52.020Z,17.65
2023-02-06T00:03:20.181Z,18.27
2023-02-06T00:05:55.520Z,18.75
2023-02-06T00:08:23.279Z,19.80
2023-02-06T00:10:52.400Z,17.02
2023-02-06T00:13:20.191Z,20.40
2023-02-06T00:15:47.837Z,17.77
2023-02-06T00:18:15.420Z,19.25
2023-02-06T00:20:43.007Z,17.50
2023-02-06T00:23:10.650Z,18.63
2023-02-06T00:25:38.377Z,17.65
2023-02-06T00:28:07.473Z,16.98
2023-02-06T00:30:35.051Z,18.08
2023-02-06T00:33:02.642Z,17.67
2023-02-06T00:35:30.562Z,17.30
2023-02-06T00:37:59.736Z,17.20
2023-02-06T00:40:27.270Z,18.83
2023-02-06T00:42:54.849Z,16.67
2023-02-06T00:45:23.693Z,17.40
2023-02-06T00:47:51.253Z,17.40
2023-02-06T00:50:19.156Z,18.10
2023-02-06T00:52:46.834Z,16.30
2023-02-06T00:55:14.416Z,17.80
2023-02-06T00:57:41.912Z,16.15
2023-02-06T01:00:10.864Z,16.85
2023-02-06T01:02:39.864Z,15.77
2023-02-06T01:05:08.051Z,17.00
2023-02-06T01:07:38.223Z,15.95
2023-02-06T01:10:06.716Z,17.35
2023-02-06T01:12:35.014Z,15.63
2023-02-06T01:15:02.674Z,14.57
2023-02-06T01:17:31.757Z,15.93
2023-02-06T01:20:01.267Z,15.10
2023-02-06T01:22:28.941Z,14.80
2023-02-06T01:24:56.484Z,14.55
2023-02-06T01:27:24.025Z,15.77
2023-02-06T01:29:51.719Z,15.10
2023-02-06T01:32:19.264Z,16.05
2023-02-06T01:34:47.574Z,15.48
2023-02-06T01:37:16.486Z,15.27
2023-02-06T01:39:44.187Z,15.70
2023-02-06T01:42:13.402Z,15.30
2023-02-06T01:44:41.054Z,16.35
2023-02-06T01:47:11.516Z,16.27
2023-02-06T01:49:42.452Z,17.60
2023-02-06T01:52:16.569Z,15.55
2023-02-06T01:54:50.184Z,16.83
2023-02-06T01:57:19.721Z,14.55
2023-02-06T01:59:52.770Z,14.90
2023-02-06T02:02:20.915Z,15.30
2023-02-06T02:04:49.363Z,15.05
2023-02-06T02:07:20.926Z,16.63
2023-02-06T02:09:49.940Z,16.67
2023-02-06T02:12:17.784Z,15.60
2023-02-06T02:14:47.216Z,15.43
2023-02-06T02:17:30.395Z,14.73
2023-02-06T02:20:33.813Z,17.02
2023-02-06T02:23:09.063Z,15.73
2023-02-06T02:26:34.043Z,16.10
2023-02-06T02:29:33.073Z,15.70
2023-02-06T02:32:31.073Z,15.65
2023-02-06T02:35:24.845Z,14.18
2023-02-06T02:38:02.837Z,15.20
2023-02-06T02:40:39.601Z,15.40
2023-02-06T02:43:15.104Z,15.75
2023-02-06T02:45:48.171Z,14.90
2023-02-06T02:48:19.752Z,15.52
2023-02-06T02:50:48.891Z,16.75
2023-02-06T02:53:16.672Z,16.50
2023-02-06T02:55:44.231Z,15.50
2023-02-06T02:58:14.780Z,17.00
2023-02-06T03:00:45.928Z,16.02
2023-02-06T03:03:16.281Z,15.95
2023-02-06T03:05:54.151Z,15.82
2023-02-06T03:08:29.990Z,15.15
2023-02-06T03:11:07.586Z,14.77
2023-02-06T03:13:40.068Z,27.30
2023-02-06T03:16:13.816Z,22.98
2023-02-06T03:18:44.698Z,22.50
2023-02-06T03:21:17.564Z,18.80
2023-02-06T03:26:16.962Z,13.30
2023-02-06T03:28:48.652Z,14.70
2023-02-06T03:31:20.176Z,13.90
2023-02-06T03:33:51.762Z,14.07
2023-02-06T03:36:20.878Z,13.13
2023-02-06T03:38:52.145Z,13.85
2023-02-06T03:41:24.054Z,12.82
2023-02-06T03:43:53.722Z,13.77
2023-02-06T03:46:22.679Z,13.25
2023-02-06T03:48:55.124Z,12.95
2023-02-06T03:51:30.937Z,13.10
2023-02-06T03:54:03.468Z,12.45
2023-02-06T03:56:36.185Z,12.60
2023-02-06T03:59:03.881Z,12.32
2023-02-06T04:01:31.529Z,12.93
2023-02-06T04:03:59.898Z,12.18
2023-02-06T04:06:28.802Z,13.82
2023-02-06T04:08:56.293Z,11.73
2023-02-06T04:11:23.789Z,14.48
2023-02-06T04:13:51.306Z,12.75
2023-02-06T04:16:18.831Z,15.02
2023-02-06T04:18:46.352Z,13.23
2023-02-06T04:21:13.852Z,13.75
2023-02-06T04:23:42.687Z,14.48
2023-02-06T04:26:10.301Z,14.52
2023-02-06T04:28:37.849Z,14.95
2023-02-06T04:31:05.768Z,16.02
2023-02-06T04:33:33.340Z,16.65
2023-02-06T04:36:00.864Z,18.00
2023-02-06T04:38:28.583Z,19.52
2023-02-06T04:41:03.232Z,19.27
2023-02-06T04:43:30.768Z,20.20
2023-02-06T04:45:58.576Z,21.75
2023-02-06T04:48:26.416Z,20.52
2023-02-06T04:50:54.026Z,20.38
2023-02-06T04:53:21.597Z,21.00
2023-02-06T04:55:49.146Z,22.05
2023-02-06T04:58:18.063Z,20.95
2023-02-06T05:00:45.633Z,20.63
2023-02-06T05:03:13.215Z,21.90
2023-02-06T05:05:40.692Z,20.88
2023-02-06T05:08:08.206Z,20.52
2023-02-06T05:10:35.703Z,19.90
2023-02-06T05:13:03.272Z,21.23
2023-02-06T05:15:32.152Z,21.80
2023-02-06T05:17:59.705Z,20.92
2023-02-06T05:20:27.253Z,23.25
2023-02-06T05:22:55.040Z,22.40
2023-02-06T05:25:22.656Z,21.30
2023-02-06T05:27:51.378Z,21.55
2023-02-06T05:30:19.229Z,22.13
2023-02-06T05:32:48.150Z,21.80
2023-02-06T05:35:15.844Z,19.48
2023-02-06T05:37:43.503Z,20.85
2023-02-06T05:40:12.329Z,19.35
2023-02-06T05:42:39.838Z,20.83
2023-02-06T05:45:08.448Z,20.15
2023-02-06T05:47:36.014Z,20.63
2023-02-06T05:50:05.396Z,19.25
2023-02-06T05:52:32.945Z,21.40
2023-02-06T05:55:00.431Z,20.92
2023-02-06T05:57:27.974Z,19.98
2023-02-06T05:59:55.535Z,19.75
2023-02-06T06:02:23.173Z,19.00
2023-02-06T06:04:51.363Z,21.20
2023-02-06T06:07:29.033Z,20.58
2023-02-06T06:09:56.669Z,19.48
2023-02-06T06:12:24.300Z,19.35
2023-02-06T06:14:51.800Z,21.35
2023-02-06T06:17:19.304Z,19.58
2023-02-06T06:19:46.865Z,20.83
2023-02-06T06:22:14.354Z,20.45
2023-02-06T06:24:43.184Z,20.30
2023-02-06T06:27:11.784Z,19.90
2023-02-06T06:29:39.373Z,20.85
2023-02-06T06:32:07.287Z,20.42
2023-02-06T06:34:34.862Z,19.63
2023-02-06T06:37:02.390Z,21.83
2023-02-06T06:39:30.247Z,22.60
2023-02-06T06:41:59.411Z,19.20
2023-02-06T06:44:27.171Z,19.48
2023-02-06T06:46:54.943Z,19.90
2023-02-06T06:49:22.760Z,18.27
2023-02-06T06:51:50.574Z,18.65
2023-02-06T06:54:19.631Z,19.65
2023-02-06T06:56:47.530Z,19.08
2023-02-06T06:59:16.766Z,19.02
2023-02-06T07:01:44.752Z,18.80
2023-02-06T07:04:12.584Z,19.45
2023-02-06T07:06:40.441Z,19.52
2023-02-06T07:09:08.218Z,20.10
2023-02-06T07:11:35.969Z,19.40
2023-02-06T07:14:03.951Z,19.67
2023-02-06T07:16:33.569Z,19.58
2023-02-06T07:19:01.503Z,18.75
2023-02-06T07:21:29.457Z,19.80
2023-02-06T07:23:57.320Z,18.80
2023-02-06T07:26:25.154Z,18.63
2023-02-06T07:28:53.081Z,19.75
2023-02-06T07:31:21.022Z,18.50
2023-02-06T07:33:50.376Z,19.05
2023-02-06T07:36:18.846Z,20.02
2023-02-06T07:38:46.605Z,18.40
2023-02-06T07:41:14.562Z,19.65
2023-02-06T07:43:42.305Z,19.55
2023-02-06T07:46:10.168Z,19.35
2023-02-06T07:48:37.979Z,19.73
2023-02-06T07:51:08.799Z,19.52
2023-02-06T07:53:37.864Z,18.77
2023-02-06T07:56:11.875Z,20.15
2023-02-06T07:58:39.809Z,18.48
2023-02-06T08:01:08.279Z,18.55
2023-02-06T08:03:36.571Z,19.35
2023-02-06T08:06:10.735Z,19.33
2023-02-06T08:08:38.936Z,19.38
2023-02-06T08:11:07.932Z,19.95
2023-02-06T08:13:36.232Z,20.13
2023-02-06T08:16:08.541Z,19.85
2023-02-06T08:18:36.426Z,19.40
2023-02-06T08:21:07.535Z,20.13
2023-02-06T08:23:36.830Z,19.08
2023-02-06T08:26:05.974Z,19.98
2023-02-06T08:28:35.190Z,17.23
2023-02-06T08:31:09.618Z,18.40
2023-02-06T08:33:37.723Z,17.23
2023-02-06T08:36:06.582Z,18.25
2023-02-06T08:38:34.569Z,14.90
2023-02-06T08:41:04.011Z,14.75
2023-02-06T08:43:33.160Z,15.50
2023-02-06T08:46:01.182Z,13.43
2023-02-06T08:48:29.138Z,13.65
2023-02-06T08:51:04.387Z,12.30
2023-02-06T08:53:32.747Z,13.00
2023-02-06T08:56:04.052Z,12.48
2023-02-06T08:58:32.325Z,12.20
2023-02-06T09:01:00.718Z,11.68
2023-02-06T09:03:28.569Z,10.60
2023-02-06T09:06:09.397Z,12.65
2023-02-06T09:08:38.213Z,11.77
2023-02-06T09:11:08.428Z,11.73
2023-02-06T09:13:36.446Z,10.25
2023-02-06T09:16:05.439Z,10.45
2023-02-06T09:18:33.394Z,10.00
2023-02-06T09:21:06.314Z,9.73
2023-02-06T09:26:02.020Z,8.65
2023-02-06T09:28:31.408Z,9.27
2023-02-06T09:30:59.411Z,9.18
2023-02-06T09:33:27.447Z,9.40
2023-02-06T09:36:06.263Z,10.10
2023-02-06T09:38:34.246Z,8.98
2023-02-06T09:41:05.051Z,9.55
2023-02-06T09:43:35.444Z,8.80
2023-02-06T09:46:06.094Z,8.80
2023-02-06T09:48:35.981Z,7.90
2023-02-06T09:51:14.050Z,8.85
2023-02-06T09:53:48.873Z,8.48
2023-02-06T09:56:26.461Z,8.20
2023-02-06T09:59:04.559Z,8.65
2023-02-06T10:01:39.631Z,8.30
2023-02-06T10:04:28.831Z,9.52
2023-02-06T10:07:07.806Z,8.48
2023-02-06T10:09:41.674Z,7.85
2023-02-06T10:12:15.646Z,8.10
2023-02-06T10:14:49.394Z,8.15
2023-02-06T10:17:23.037Z,8.90
2023-02-06T10:19:58.130Z,7.30
2023-02-06T10:22:32.625Z,7.53
2023-02-06T10:25:22.349Z,6.68
2023-02-06T10:27:56.248Z,7.03
2023-02-06T10:30:37.026Z,8.38
2023-02-06T10:33:23.957Z,8.48
2023-02-06T10:36:01.194Z,8.02
2023-02-06T10:38:42.396Z,8.15
2023-02-06T10:41:15.779Z,7.72
2023-02-06T10:43:49.105Z,7.60
2023-02-06T10:46:38.000Z,7.93
2023-02-06T10:49:14.101Z,7.30
2023-02-06T10:51:45.425Z,8.50
2023-02-06T10:54:19.600Z,7.97
2023-02-06T10:56:48.848Z,7.68
2023-02-06T10:59:24.833Z,7.57
2023-02-06T11:02:03.456Z,7.72
2023-02-06T11:04:36.929Z,7.38
2023-02-06T11:07:09.700Z,8.43
2023-02-06T11:12:06.558Z,7.47
2023-02-06T11:14:37.729Z,6.68
2023-02-06T11:17:06.976Z,8.02
2023-02-06T11:19:39.149Z,7.38
2023-02-06T11:22:12.829Z,8.23
2023-02-06T11:25:00.161Z,7.72
2023-02-06T11:27:29.413Z,9.73
2023-02-06T11:29:57.588Z,8.38
2023-02-06T11:32:36.094Z,7.90
2023-02-06T11:35:07.586Z,7.97
2023-02-06T11:37:37.561Z,7.30
2023-02-06T11:40:26.827Z,8.25
2023-02-06T11:43:18.272Z,9.60
2023-02-06T11:45:47.373Z,8.35
2023-02-06T11:48:40.236Z,8.90
2023-02-06T11:51:09.682Z,9.48
2023-02-06T11:53:38.906Z,9.85
2023-02-06T11:56:16.585Z,8.75
2023-02-06T11:58:45.474Z,8.07
2023-02-06T12:01:21.030Z,7.50
2023-02-06T12:03:58.771Z,7.72
2023-02-06T12:06:31.755Z,6.80
2023-02-06T12:09:01.320Z,6.28
2023-02-06T12:11:34.416Z,6.72
2023-02-06T12:14:06.210Z,6.10
2023-02-06T12:16:35.680Z,7.03
2023-02-06T12:19:11.613Z,6.57
2023-02-06T12:21:43.563Z,6.22
2023-02-06T12:24:28.219Z,6.90
2023-02-06T12:26:57.157Z,7.00
2023-02-06T12:29:28.942Z,8.68
2023-02-06T12:32:05.139Z,7.90
2023-02-06T12:34:46.420Z,8.38
2023-02-06T12:37:31.532Z,8.20
2023-02-06T12:39:59.904Z,7.93
2023-02-06T12:42:38.983Z,9.68
2023-02-06T12:45:17.760Z,9.15
2023-02-06T12:47:50.882Z,10.55
2023-02-06T12:50:24.359Z,9.85
2023-02-06T12:52:57.546Z,8.90
2023-02-06T12:55:29.633Z,10.07
2023-02-06T12:57:57.914Z,8.43
2023-02-06T13:00:44.889Z,8.43
2023-02-06T13:03:32.321Z,7.78
2023-02-06T13:06:13.283Z,9.13
2023-02-06T13:08:45.002Z,8.48
2023-02-06T13:11:25.257Z,7.68
2023-02-06T13:14:01.432Z,8.10
2023-02-06T13:16:44.537Z,8.40
2023-02-06T13:19:26.556Z,9.18
2023-02-06T13:22:22.967Z,8.23
2023-02-06T13:24:52.393Z,7.75
2023-02-06T13:27:25.001Z,7.30
2023-02-06T13:29:53.920Z,8.27
2023-02-06T13:32:46.048Z,8.95
2023-02-06T13:35:26.852Z,8.52
2023-02-06T13:38:29.453Z,8.35
2023-02-06T13:41:27.764Z,7.70
2023-02-06T13:43:58.235Z,8.70
2023-02-06T13:46:58.745Z,7.95
2023-02-06T13:49:55.094Z,8.07
2023-02-06T13:52:35.416Z,7.90
2023-02-06T13:55:22.387Z,8.63
2023-02-06T13:58:17.523Z,9.02
2023-02-06T14:00:48.801Z,8.77
2023-02-06T14:03:23.705Z,8.38
2023-02-06T14:06:00.748Z,8.45
2023-02-06T14:08:38.723Z,8.82
2023-02-06T14:11:38.538Z,8.00
2023-02-06T14:14:24.770Z,9.00
2023-02-06T14:17:03.178Z,8.43
2023-02-06T14:19:39.708Z,8.40
2023-02-06T14:22:20.359Z,8.10
2023-02-06T14:25:06.563Z,8.52
2023-02-06T14:27:51.671Z,9.00
2023-02-06T14:30:32.243Z,8.07
2023-02-06T14:33:11.920Z,7.18
2023-02-06T14:35:58.400Z,6.75
2023-02-06T14:38:48.121Z,6.68
2023-02-06T14:41:16.823Z,7.25
2023-02-06T14:43:46.741Z,7.32
2023-02-06T14:46:18.350Z,8.02
2023-02-06T14:48:49.284Z,8.35
2023-02-06T14:51:24.706Z,7.40
2023-02-06T14:53:55.727Z,7.32
2023-02-06T14:56:29.061Z,6.80
2023-02-06T14:58:56.818Z,7.18
2023-02-06T15:01:28.724Z,7.53
2023-02-06T15:04:11.524Z,6.33
2023-02-06T15:06:40.796Z,6.38
2023-02-06T15:09:09.448Z,6.70
2023-02-06T15:11:36.976Z,6.70
2023-02-06T15:14:19.952Z,6.40
2023-02-06T15:16:50.068Z,7.15
2023-02-06T15:19:20.753Z,6.53
2023-02-06T15:21:48.817Z,5.45
2023-02-06T15:24:36.911Z,6.35
2023-02-06T15:27:14.580Z,6.43
2023-02-06T15:29:48.875Z,6.45
2023-02-06T15:32:26.059Z,6.15
2023-02-06T15:34:53.617Z,6.05
2023-02-06T15:37:23.198Z,5.95
2023-02-06T15:39:51.600Z,6.07
2023-02-06T15:42:20.980Z,6.93
2023-02-06T15:44:50.338Z,7.05
2023-02-06T15:47:21.217Z,5.53
2023-02-06T15:49:50.714Z,6.80
2023-02-06T15:52:34.493Z,6.60
2023-02-06T15:55:02.249Z,6.63
2023-02-06T15:57:32.463Z,6.03
2023-02-06T16:00:00.466Z,6.25
2023-02-06T16:02:33.790Z,6.85
2023-02-06T16:05:02.852Z,6.70
2023-02-06T16:07:33.129Z,6.22
2023-02-06T16:10:05.982Z,6.95
2023-02-06T16:15:03.474Z,5.80
2023-02-06T16:17:35.286Z,7.88
2023-02-06T16:20:05.004Z,7.05
2023-02-06T16:22:34.589Z,7.15
2023-02-06T16:25:22.334Z,7.18
2023-02-06T16:27:51.148Z,7.32
2023-02-06T16:30:28.186Z,7.15
2023-02-06T16:32:59.088Z,8.50
2023-02-06T16:35:27.327Z,8.48
2023-02-06T16:37:55.443Z,9.48
2023-02-06T16:40:26.063Z,10.32
2023-02-06T16:42:53.846Z,8.07
2023-02-06T16:45:23.514Z,8.52
2023-02-06T16:47:51.630Z,7.72
2023-02-06T16:50:22.259Z,7.70
2023-02-06T16:52:51.940Z,7.38
2023-02-06T16:55:23.132Z,7.28
2023-02-06T16:57:54.149Z,7.68
2023-02-06T17:00:24.037Z,7.43
2023-02-06T17:02:52.902Z,8.35
2023-02-06T17:05:24.917Z,9.98
2023-02-06T17:07:53.462Z,8.70
2023-02-06T17:10:23.245Z,8.95
2023-02-06T17:12:51.157Z,9.45
2023-02-06T17:15:20.162Z,9.82
2023-02-06T17:17:48.029Z,8.52
2023-02-06T17:20:25.248Z,9.32
2023-02-06T17:22:52.974Z,8.82
2023-02-06T17:25:20.482Z,8.68
2023-02-06T17:27:48.272Z,9.15
2023-02-06T17:30:18.571Z,9.15
2023-02-06T17:32:46.110Z,9.32
2023-02-06T17:35:13.955Z,9.35
2023-02-06T17:37:42.877Z,9.60
2023-02-06T17:40:17.392Z,10.18
2023-02-06T17:42:44.976Z,8.98
2023-02-06T17:45:12.653Z,9.88
2023-02-06T17:47:40.186Z,9.02
2023-02-06T17:50:08.844Z,8.68
2023-02-06T17:52:36.425Z,8.88
2023-02-06T17:55:05.550Z,10.27
2023-02-06T17:57:34.876Z,9.85
2023-02-06T18:00:02.633Z,10.93
2023-02-06T18:02:30.216Z,10.30
2023-02-06T18:04:59.859Z,10.23
2023-02-06T18:07:27.859Z,10.57
2023-02-06T18:09:55.375Z,9.05
2023-02-06T18:12:24.208Z,9.70
2023-02-06T18:14:51.754Z,10.93
2023-02-06T18:17:19.826Z,10.20
2023-02-06T18:19:49.691Z,8.95
2023-02-06T18:22:19.751Z,10.40
2023-02-06T18:24:48.292Z,9.80
2023-02-06T18:27:16.096Z,9.82
2023-02-06T18:29:50.664Z,9.48
2023-02-06T18:32:19.381Z,10.95
2023-02-06T18:34:47.370Z,10.25
2023-02-06T18:37:15.235Z,10.10
2023-02-06T18:39:42.921Z,10.32
2023-02-06T18:42:28.578Z,12.55
2023-02-06T18:44:57.434Z,10.32
2023-02-06T18:47:25.052Z,9.73
2023-02-06T18:49:52.620Z,10.07
2023-02-06T18:52:20.141Z,11.32
2023-02-06T18:54:48.754Z,9.60
2023-02-06T18:57:16.313Z,9.27
2023-02-06T18:59:43.816Z,10.15
2023-02-06T19:02:13.169Z,9.90
2023-02-06T19:04:41.202Z,10.57
2023-02-06T19:07:11.099Z,10.35
2023-02-06T19:09:38.952Z,10.45
2023-02-06T19:12:07.040Z,10.57
2023-02-06T19:14:34.611Z,10.10
2023-02-06T19:17:02.214Z,9.05
2023-02-06T19:19:31.076Z,9.27
2023-02-06T19:21:58.581Z,9.20
2023-02-06T19:24:28.200Z,9.82
2023-02-06T19:26:56.446Z,9.65
2023-02-06T19:29:34.868Z,9.40
2023-02-06T19:32:03.723Z,11.00
2023-02-06T19:34:35.858Z,9.38
2023-02-06T19:37:03.577Z,9.70
2023-02-06T19:39:33.975Z,9.02
2023-02-06T19:42:01.935Z,9.57
2023-02-06T19:44:29.536Z,8.85
2023-02-06T19:46:57.573Z,9.10
2023-02-06T19:49:26.042Z,8.43
2023-02-06T19:51:55.117Z,7.75
2023-02-06T19:54:22.663Z,9.43
2023-02-06T19:56:50.354Z,9.35
2023-02-06T19:59:19.878Z,7.63
2023-02-06T20:01:48.560Z,6.88
2023-02-06T20:04:20.508Z,8.18
2023-02-06T20:06:50.956Z,9.35
2023-02-06T20:09:21.455Z,19.90
2023-02-06T20:11:49.826Z,9.43
2023-02-06T20:14:18.164Z,8.13
2023-02-06T20:16:47.192Z,8.30
2023-02-06T20:19:18.418Z,7.65
2023-02-06T20:21:48.345Z,8.10
2023-02-06T20:24:20.728Z,9.43
2023-02-06T20:26:52.946Z,7.88
2023-02-06T20:29:23.007Z,7.72
2023-02-06T20:31:51.712Z,8.40
2023-02-06T20:34:19.946Z,8.07
2023-02-06T20:36:47.694Z,8.48
2023-02-06T20:39:15.740Z,7.35
2023-02-06T20:41:44.007Z,8.30
2023-02-06T20:44:14.648Z,6.82
2023-02-06T20:46:43.135Z,7.85
2023-02-06T20:49:15.551Z,6.97
2023-02-06T20:51:43.079Z,7.10
2023-02-06T20:54:11.461Z,8.20
2023-02-06T20:56:39.739Z,8.75
2023-02-06T20:59:07.443Z,8.55
2023-02-06T21:01:36.397Z,9.43
2023-02-06T21:04:07.467Z,9.50
2023-02-06T21:06:36.410Z,9.95
2023-02-06T21:09:05.251Z,9.10
2023-02-06T21:11:35.201Z,9.35
2023-02-06T21:14:04.830Z,8.68
2023-02-06T21:16:33.648Z,7.88
2023-02-06T21:19:05.322Z,7.85
2023-02-06T21:21:33.175Z,7.53
2023-02-06T21:24:00.725Z,6.55
2023-02-06T21:26:29.268Z,7.32
2023-02-06T21:28:58.266Z,8.05
2023-02-06T21:31:32.986Z,6.90
2023-02-06T21:34:07.035Z,7.20
2023-02-06T21:39:04.012Z,6.40
2023-02-06T21:41:31.777Z,6.00
2023-02-06T21:43:59.559Z,5.20
2023-02-06T21:46:30.253Z,5.30
2023-02-06T21:48:57.857Z,4.50
2023-02-06T21:51:26.790Z,3.88
2023-02-06T21:53:54.339Z,3.88
2023-02-06T21:56:25.792Z,4.63
2023-02-06T21:58:53.669Z,4.93
2023-02-06T22:01:24.077Z,4.15
2023-02-06T22:03:52.258Z,5.43
2023-02-06T22:06:20.834Z,5.07
2023-02-06T22:08:52.402Z,4.80
2023-02-06T22:11:22.626Z,5.82
2023-02-06T22:13:50.933Z,5.70
2023-02-06T22:16:21.160Z,7.25
2023-02-06T22:18:49.035Z,7.13
2023-02-06T22:21:18.713Z,7.00
2023-02-06T22:23:47.355Z,8.13
2023-02-06T22:26:18.455Z,7.53
2023-02-06T22:28:46.057Z,6.72
2023-02-06T22:31:15.679Z,6.25
2023-02-06T22:33:43.858Z,6.80
2023-02-06T22:36:14.364Z,7.07
2023-02-06T22:38:43.190Z,7.65
2023-02-06T22:41:13.046Z,7.35
2023-02-06T22:43:42.628Z,7.07
2023-02-06T22:46:18.286Z,8.00
2023-02-06T22:48:45.827Z,8.73
2023-02-06T22:51:13.858Z,8.55
2023-02-06T22:53:41.909Z,8.18
2023-02-06T22:56:29.583Z,7.93
2023-02-06T22:59:00.152Z,9.05
2023-02-06T23:01:30.622Z,8.32
2023-02-06T23:03:58.784Z,8.73
2023-02-06T23:06:27.728Z,8.23
2023-02-06T23:08:56.358Z,9.05
2023-02-06T23:11:24.187Z,9.52
2023-02-06T23:13:54.276Z,8.63
2023-02-06T23:16:23.796Z,9.18
2023-02-06T23:18:51.579Z,8.45
2023-02-06T23:21:21.008Z,8.20
2023-02-06T23:23:49.189Z,9.30
2023-02-06T23:26:19.730Z,9.25
2023-02-06T23:28:47.889Z,8.68
2023-02-06T23:31:15.568Z,9.27
2023-02-06T23:33:44.571Z,9.63
2023-02-06T23:36:14.655Z,8.93
2023-02-06T23:38:43.180Z,9.65
2023-02-06T23:41:13.486Z,9.60
2023-02-06T23:43:41.373Z,9.77
2023-02-06T23:46:12.114Z,9.57
2023-02-06T23:48:40.498Z,10.38
2023-02-06T23:51:09.691Z,11.23
2023-02-06T23:53:37.206Z,11.35
2023-02-06T23:56:11.337Z,11.38
2023-02-06T23:58:38.928Z,11.35
